sensor_id;sensor_type;location;lat;lon;timestamp;pressure;altitude;pressure_sealevel;temperature;humidity
48630;BME280;34426;52.180;4.462;2023-08-17T00:01:10;102219.16;;;17.76;85.17
48630;BME280;34426;52.180;4.462;2023-08-17T00:03:36;102213.53;;;17.71;84.75
48630;BME280;34426;52.180;4.462;2023-08-17T00:06:01;102210.72;;;17.66;84.76
48630;BME280;34426;52.180;4.462;2023-08-17T00:08:27;102211.84;;;17.65;84.68
48630;BME280;34426;52.180;4.462;2023-08-17T00:10:54;102214.91;;;17.63;84.52
48630;BME280;34426;52.180;4.462;2023-08-17T00:13:19;102221.41;;;17.59;84.61
48630;BME280;34426;52.180;4.462;2023-08-17T00:15:45;102218.59;;;17.54;84.57
48630;BME280;34426;52.180;4.462;2023-08-17T00:18:10;102226.19;;;17.43;84.41
48630;BME280;34426;52.180;4.462;2023-08-17T00:20:36;102226.50;;;17.47;83.71
48630;BME280;34426;52.180;4.462;2023-08-17T00:23:01;102234.97;;;17.42;84.03
48630;BME280;34426;52.180;4.462;2023-08-17T00:25:27;102233.28;;;17.41;83.83
48630;BME280;34426;52.180;4.462;2023-08-17T00:27:54;102229.31;;;17.47;83.63
48630;BME280;34426;52.180;4.462;2023-08-17T00:30:19;102230.72;;;17.44;83.52
48630;BME280;34426;52.180;4.462;2023-08-17T00:32:45;102223.09;;;17.50;83.23
48630;BME280;34426;52.180;4.462;2023-08-17T00:35:10;102231.31;;;17.46;82.42
48630;BME280;34426;52.180;4.462;2023-08-17T00:37:36;102219.16;;;17.51;82.05
48630;BME280;34426;52.180;4.462;2023-08-17T00:40:01;102226.78;;;17.55;82.05
48630;BME280;34426;52.180;4.462;2023-08-17T00:42:27;102217.16;;;17.41;82.22
48630;BME280;34426;52.180;4.462;2023-08-17T00:44:53;102203.56;;;17.38;82.20
48630;BME280;34426;52.180;4.462;2023-08-17T00:47:19;102201.28;;;17.35;82.51
48630;BME280;34426;52.180;4.462;2023-08-17T00:49:44;102211.22;;;17.27;82.82
48630;BME280;34426;52.180;4.462;2023-08-17T00:52:10;102209.22;;;17.33;82.82
48630;BME280;34426;52.180;4.462;2023-08-17T00:54:35;102214.03;;;17.33;82.41
48630;BME280;34426;52.180;4.462;2023-08-17T00:57:01;102215.72;;;17.23;83.11
48630;BME280;34426;52.180;4.462;2023-08-17T00:59:27;102210.34;;;17.27;82.86
48630;BME280;34426;52.180;4.462;2023-08-17T01:01:54;102214.03;;;17.22;83.18
48630;BME280;34426;52.180;4.462;2023-08-17T01:04:20;102212.59;;;17.15;83.42
48630;BME280;34426;52.180;4.462;2023-08-17T01:06:46;102217.94;;;17.11;83.88
48630;BME280;34426;52.180;4.462;2023-08-17T01:09:11;102211.75;;;17.14;83.77
48630;BME280;34426;52.180;4.462;2023-08-17T01:11:41;102209.75;;;17.15;83.38
48630;BME280;34426;52.180;4.462;2023-08-17T01:14:15;102220.19;;;17.09;84.04
48630;BME280;34426;52.180;4.462;2023-08-17T01:16:48;102219.63;;;17.07;83.78
48630;BME280;34426;52.180;4.462;2023-08-17T01:19:24;102213.69;;;17.04;84.07
48630;BME280;34426;52.180;4.462;2023-08-17T01:21:54;102212.28;;;17.06;84.24
48630;BME280;34426;52.180;4.462;2023-08-17T01:24:23;102213.13;;;17.07;83.89
48630;BME280;34426;52.180;4.462;2023-08-17T01:26:48;102213.97;;;17.02;84.00
48630;BME280;34426;52.180;4.462;2023-08-17T01:29:15;102210.81;;;16.93;84.84
48630;BME280;34426;52.180;4.462;2023-08-17T01:31:49;102212.50;;;16.94;84.51
48630;BME280;34426;52.180;4.462;2023-08-17T01:34:21;102213.34;;;16.90;84.83
48630;BME280;34426;52.180;4.462;2023-08-17T01:36:53;102212.22;;;16.86;85.05
48630;BME280;34426;52.180;4.462;2023-08-17T01:39:26;102211.66;;;16.84;84.98
48630;BME280;34426;52.180;4.462;2023-08-17T01:41:52;102222.38;;;16.77;85.39
48630;BME280;34426;52.180;4.462;2023-08-17T01:44:20;102218.97;;;16.75;85.61
48630;BME280;34426;52.180;4.462;2023-08-17T01:46:46;102218.94;;;16.70;85.71
48630;BME280;34426;52.180;4.462;2023-08-17T01:49:11;102220.66;;;16.76;85.66
48630;BME280;34426;52.180;4.462;2023-08-17T01:51:37;102213.31;;;16.75;85.93
48630;BME280;34426;52.180;4.462;2023-08-17T01:54:03;102213.56;;;16.68;86.28
48630;BME280;34426;52.180;4.462;2023-08-17T01:56:30;102203.66;;;16.66;86.40
48630;BME280;34426;52.180;4.462;2023-08-17T01:58:55;102204.72;;;16.59;86.56
48630;BME280;34426;52.180;4.462;2023-08-17T02:01:21;102193.44;;;16.59;86.71
48630;BME280;34426;52.180;4.462;2023-08-17T02:03:46;102193.16;;;16.61;86.70
48630;BME280;34426;52.180;4.462;2023-08-17T02:06:12;102204.72;;;16.59;86.96
48630;BME280;34426;52.180;4.462;2023-08-17T02:08:37;102200.19;;;16.58;87.07
48630;BME280;34426;52.180;4.462;2023-08-17T02:11:03;102202.13;;;16.48;87.37
48630;BME280;34426;52.180;4.462;2023-08-17T02:13:30;102194.50;;;16.48;87.49
48630;BME280;34426;52.180;4.462;2023-08-17T02:15:55;102200.69;;;16.40;88.01
48630;BME280;34426;52.180;4.462;2023-08-17T02:18:21;102194.19;;;16.40;88.54
48630;BME280;34426;52.180;4.462;2023-08-17T02:20:46;102186.00;;;16.38;88.89
48630;BME280;34426;52.180;4.462;2023-08-17T02:23:11;102184.31;;;16.37;88.96
48630;BME280;34426;52.180;4.462;2023-08-17T02:25:38;102190.50;;;16.34;88.90
48630;BME280;34426;52.180;4.462;2023-08-17T02:28:03;102191.31;;;16.29;89.34
48630;BME280;34426;52.180;4.462;2023-08-17T02:30:30;102202.88;;;16.28;89.61
48630;BME280;34426;52.180;4.462;2023-08-17T02:32:56;102205.13;;;16.26;89.65
48630;BME280;34426;52.180;4.462;2023-08-17T02:35:22;102211.94;;;16.30;89.66
48630;BME280;34426;52.180;4.462;2023-08-17T02:37:47;102212.16;;;16.23;89.84
48630;BME280;34426;52.180;4.462;2023-08-17T02:40:12;102210.69;;;16.16;90.51
48630;BME280;34426;52.180;4.462;2023-08-17T02:42:38;102204.47;;;16.14;90.77
48630;BME280;34426;52.180;4.462;2023-08-17T02:45:04;102207.84;;;16.11;91.14
48630;BME280;34426;52.180;4.462;2023-08-17T02:47:31;102208.38;;;16.08;91.33
48630;BME280;34426;52.180;4.462;2023-08-17T02:49:57;102206.09;;;16.05;91.56
48630;BME280;34426;52.180;4.462;2023-08-17T02:52:22;102211.78;;;16.10;91.61
48630;BME280;34426;52.180;4.462;2023-08-17T02:54:48;102201.31;;;16.05;91.58
48630;BME280;34426;52.180;4.462;2023-08-17T02:57:13;102207.53;;;16.07;91.72
48630;BME280;34426;52.180;4.462;2023-08-17T02:59:39;102203.56;;;16.03;91.83
48630;BME280;34426;52.180;4.462;2023-08-17T03:02:04;102203.53;;;15.98;91.92
48630;BME280;34426;52.180;4.462;2023-08-17T03:04:31;102199.91;;;16.03;91.43
48630;BME280;34426;52.180;4.462;2023-08-17T03:06:56;102202.69;;;15.98;91.69
48630;BME280;34426;52.180;4.462;2023-08-17T03:09:22;102201.53;;;15.93;91.86
48630;BME280;34426;52.180;4.462;2023-08-17T03:11:47;102200.69;;;15.93;92.14
48630;BME280;34426;52.180;4.462;2023-08-17T03:14:13;102198.16;;;15.96;91.94
48630;BME280;34426;52.180;4.462;2023-08-17T03:16:38;102210.50;;;15.85;92.29
48630;BME280;34426;52.180;4.462;2023-08-17T03:19:04;102206.56;;;15.86;92.43
48630;BME280;34426;52.180;4.462;2023-08-17T03:21:30;102204.22;;;15.78;92.86
48630;BME280;34426;52.180;4.462;2023-08-17T03:23:56;102207.63;;;15.80;92.81
48630;BME280;34426;52.180;4.462;2023-08-17T03:26:21;102199.66;;;15.72;93.09
48630;BME280;34426;52.180;4.462;2023-08-17T03:28:47;102200.78;;;15.71;93.38
48630;BME280;34426;52.180;4.462;2023-08-17T03:31:12;102200.16;;;15.64;93.79
48630;BME280;34426;52.180;4.462;2023-08-17T03:33:38;102201.84;;;15.65;94.04
48630;BME280;34426;52.180;4.462;2023-08-17T03:36:03;102199.66;;;15.72;93.70
48630;BME280;34426;52.180;4.462;2023-08-17T03:38:31;102199.41;;;15.74;93.28
48630;BME280;34426;52.180;4.462;2023-08-17T03:40:56;102199.06;;;15.70;93.73
48630;BME280;34426;52.180;4.462;2023-08-17T03:43:22;102196.84;;;15.72;93.73
48630;BME280;34426;52.180;4.462;2023-08-17T03:45:47;102200.75;;;15.66;94.39
48630;BME280;34426;52.180;4.462;2023-08-17T03:48:13;102194.56;;;15.69;94.34
48630;BME280;34426;52.180;4.462;2023-08-17T03:50:38;102193.44;;;15.70;94.14
48630;BME280;34426;52.180;4.462;2023-08-17T03:53:04;102194.03;;;15.72;94.01
48630;BME280;34426;52.180;4.462;2023-08-17T03:55:31;102196.25;;;15.70;93.91
48630;BME280;34426;52.180;4.462;2023-08-17T03:57:56;102190.03;;;15.68;94.03
48630;BME280;34426;52.180;4.462;2023-08-17T04:00:22;102184.66;;;15.67;94.01
48630;BME280;34426;52.180;4.462;2023-08-17T04:02:47;102189.50;;;15.71;93.96
48630;BME280;34426;52.180;4.462;2023-08-17T04:05:13;102194.81;;;15.68;93.72
48630;BME280;34426;52.180;4.462;2023-08-17T04:07:38;102193.66;;;15.63;93.31
48630;BME280;34426;52.180;4.462;2023-08-17T04:10:05;102198.44;;;15.63;93.32
48630;BME280;34426;52.180;4.462;2023-08-17T04:12:32;102192.81;;;15.63;93.67
48630;BME280;34426;52.180;4.462;2023-08-17T04:14:58;102193.31;;;15.55;93.59
48630;BME280;34426;52.180;4.462;2023-08-17T04:17:23;102200.31;;;15.52;93.84
48630;BME280;34426;52.180;4.462;2023-08-17T04:19:49;102196.75;;;15.57;93.53
48630;BME280;34426;52.180;4.462;2023-08-17T04:22:14;102202.56;;;15.50;94.14
48630;BME280;34426;52.180;4.462;2023-08-17T04:24:40;102191.59;;;15.54;93.93
48630;BME280;34426;52.180;4.462;2023-08-17T04:27:05;102194.38;;;15.49;94.00
48630;BME280;34426;52.180;4.462;2023-08-17T04:29:32;102198.09;;;15.54;93.86
48630;BME280;34426;52.180;4.462;2023-08-17T04:31:58;102199.22;;;15.53;93.65
48630;BME280;34426;52.180;4.462;2023-08-17T04:34:24;102198.94;;;15.55;94.03
48630;BME280;34426;52.180;4.462;2023-08-17T04:36:49;102198.09;;;15.54;93.78
48630;BME280;34426;52.180;4.462;2023-08-17T04:39:15;102196.06;;;15.50;94.19
48630;BME280;34426;52.180;4.462;2023-08-17T04:41:41;102199.16;;;15.48;94.29
48630;BME280;34426;52.180;4.462;2023-08-17T04:44:06;102204.00;;;15.53;94.27
48630;BME280;34426;52.180;4.462;2023-08-17T04:46:33;102201.72;;;15.50;94.54
48630;BME280;34426;52.180;4.462;2023-08-17T04:48:58;102196.34;;;15.48;94.51
48630;BME280;34426;52.180;4.462;2023-08-17T04:51:24;102199.75;;;15.50;94.33
48630;BME280;34426;52.180;4.462;2023-08-17T04:53:49;102189.25;;;15.46;94.36
48630;BME280;34426;52.180;4.462;2023-08-17T04:56:15;102185.97;;;15.54;93.71
48630;BME280;34426;52.180;4.462;2023-08-17T04:58:40;102187.94;;;15.53;93.83
48630;BME280;34426;52.180;4.462;2023-08-17T05:01:06;102188.16;;;15.47;93.88
48630;BME280;34426;52.180;4.462;2023-08-17T05:03:33;102187.34;;;15.51;94.20
48630;BME280;34426;52.180;4.462;2023-08-17T05:05:58;102195.75;;;15.46;94.05
48630;BME280;34426;52.180;4.462;2023-08-17T05:08:24;102191.59;;;15.54;93.54
48630;BME280;34426;52.180;4.462;2023-08-17T05:10:49;102192.78;;;15.58;93.91
48630;BME280;34426;52.180;4.462;2023-08-17T05:13:15;102183.47;;;15.57;93.77
48630;BME280;34426;52.180;4.462;2023-08-17T05:15:42;102188.78;;;15.54;94.11
48630;BME280;34426;52.180;4.462;2023-08-17T05:18:07;102176.38;;;15.55;94.48
48630;BME280;34426;52.180;4.462;2023-08-17T05:20:34;102174.75;;;15.59;94.50
48630;BME280;34426;52.180;4.462;2023-08-17T05:23:00;102173.06;;;15.63;94.58
48630;BME280;34426;52.180;4.462;2023-08-17T05:25:25;102179.03;;;15.67;94.31
48630;BME280;34426;52.180;4.462;2023-08-17T05:27:51;102176.25;;;15.72;94.47
48630;BME280;34426;52.180;4.462;2023-08-17T05:30:17;102189.00;;;15.79;94.01
48630;BME280;34426;52.180;4.462;2023-08-17T05:32:43;102187.38;;;15.88;93.13
48630;BME280;34426;52.180;4.462;2023-08-17T05:35:08;102189.13;;;15.94;92.59
48630;BME280;34426;52.180;4.462;2023-08-17T05:37:35;102186.91;;;16.02;92.11
48630;BME280;34426;52.180;4.462;2023-08-17T05:40:00;102183.78;;;16.03;92.04
48630;BME280;34426;52.180;4.462;2023-08-17T05:42:26;102185.22;;;16.06;91.08
48630;BME280;34426;52.180;4.462;2023-08-17T05:44:51;102176.78;;;16.11;91.61
48630;BME280;34426;52.180;4.462;2023-08-17T05:47:17;102190.41;;;16.19;91.15
48630;BME280;34426;52.180;4.462;2023-08-17T05:49:42;102185.31;;;16.21;91.01
48630;BME280;34426;52.180;4.462;2023-08-17T05:52:08;102185.28;;;16.16;91.13
48630;BME280;34426;52.180;4.462;2023-08-17T05:54:35;102187.53;;;16.14;91.04
48630;BME280;34426;52.180;4.462;2023-08-17T05:57:01;102187.50;;;16.09;91.72
48630;BME280;34426;52.180;4.462;2023-08-17T05:59:27;102195.09;;;16.03;92.06
48630;BME280;34426;52.180;4.462;2023-08-17T06:01:52;102194.81;;;16.00;92.27
48630;BME280;34426;52.180;4.462;2023-08-17T06:04:18;102203.53;;;15.98;92.75
48630;BME280;34426;52.180;4.462;2023-08-17T06:06:43;102201.84;;;15.97;93.04
48630;BME280;34426;52.180;4.462;2023-08-17T06:09:09;102208.06;;;16.04;93.07
48630;BME280;34426;52.180;4.462;2023-08-17T06:11:36;102210.13;;;16.14;93.01
48630;BME280;34426;52.180;4.462;2023-08-17T06:14:01;102209.06;;;16.25;92.93
48630;BME280;34426;52.180;4.462;2023-08-17T06:16:27;102211.94;;;16.30;92.73
48630;BME280;34426;52.180;4.462;2023-08-17T06:18:52;102209.16;;;16.40;92.35
48630;BME280;34426;52.180;4.462;2023-08-17T06:21:17;102218.22;;;16.47;91.95
48630;BME280;34426;52.180;4.462;2023-08-17T06:23:43;102207.53;;;16.54;91.97
48630;BME280;34426;52.180;4.462;2023-08-17T06:26:08;102209.06;;;16.72;91.02
48630;BME280;34426;52.180;4.462;2023-08-17T06:28:35;102209.09;;;16.77;90.82
48630;BME280;34426;52.180;4.462;2023-08-17T06:31:01;102206.59;;;16.96;89.71
48630;BME280;34426;52.180;4.462;2023-08-17T06:33:26;102204.88;;;16.95;89.05
48630;BME280;34426;52.180;4.462;2023-08-17T06:35:52;102207.19;;;17.08;89.05
48630;BME280;34426;52.180;4.462;2023-08-17T06:38:17;102217.41;;;17.14;88.51
48630;BME280;34426;52.180;4.462;2023-08-17T06:40:44;102221.09;;;17.35;87.92
48630;BME280;34426;52.180;4.462;2023-08-17T06:43:10;102222.81;;;17.46;87.31
48630;BME280;34426;52.180;4.462;2023-08-17T06:45:37;102215.19;;;17.57;86.73
48630;BME280;34426;52.180;4.462;2023-08-17T06:48:03;102218.03;;;17.62;85.45
48630;BME280;34426;52.180;4.462;2023-08-17T06:50:29;102211.56;;;17.72;85.85
48630;BME280;34426;52.180;4.462;2023-08-17T06:52:54;102216.34;;;17.76;84.67
48630;BME280;34426;52.180;4.462;2023-08-17T06:55:20;102216.34;;;17.86;84.92
48630;BME280;34426;52.180;4.462;2023-08-17T06:57:46;102219.44;;;17.65;85.12
48630;BME280;34426;52.180;4.462;2023-08-17T07:00:12;102213.50;;;17.76;84.91
48630;BME280;34426;52.180;4.462;2023-08-17T07:02:39;102214.38;;;17.82;84.06
48630;BME280;34426;52.180;4.462;2023-08-17T07:05:05;102218.03;;;17.87;84.10
48630;BME280;34426;52.180;4.462;2023-08-17T07:07:31;102209.84;;;17.91;83.97
48630;BME280;34426;52.180;4.462;2023-08-17T07:09:56;102212.38;;;17.92;84.24
48630;BME280;34426;52.180;4.462;2023-08-17T07:12:22;102208.97;;;18.01;84.23
48630;BME280;34426;52.180;4.462;2023-08-17T07:14:47;102223.13;;;18.16;83.91
48630;BME280;34426;52.180;4.462;2023-08-17T07:17:12;102214.00;;;18.34;83.22
48630;BME280;34426;52.180;4.462;2023-08-17T07:19:39;102211.72;;;18.41;81.91
48630;BME280;34426;52.180;4.462;2023-08-17T07:22:05;102209.72;;;18.52;82.00
48630;BME280;34426;52.180;4.462;2023-08-17T07:24:31;102207.16;;;18.50;81.85
48630;BME280;34426;52.180;4.462;2023-08-17T07:26:56;102209.44;;;18.53;81.42
48630;BME280;34426;52.180;4.462;2023-08-17T07:29:22;102210.00;;;18.50;81.82
48630;BME280;34426;52.180;4.462;2023-08-17T07:31:48;102208.00;;;18.51;81.75
48630;BME280;34426;52.180;4.462;2023-08-17T07:34:13;102220.78;;;18.48;81.26
48630;BME280;34426;52.180;4.462;2023-08-17T07:36:40;102218.50;;;18.60;81.46
48630;BME280;34426;52.180;4.462;2023-08-17T07:39:06;102215.03;;;18.74;80.77
48630;BME280;34426;52.180;4.462;2023-08-17T07:41:32;102218.44;;;18.71;79.97
48630;BME280;34426;52.180;4.462;2023-08-17T07:43:57;102217.03;;;18.73;79.69
48630;BME280;34426;52.180;4.462;2023-08-17T07:46:23;102210.56;;;18.63;79.46
48630;BME280;34426;52.180;4.462;2023-08-17T07:48:48;102204.84;;;18.73;79.56
48630;BME280;34426;52.180;4.462;2023-08-17T07:51:14;102211.06;;;18.70;79.38
48630;BME280;34426;52.180;4.462;2023-08-17T07:53:41;102208.56;;;18.58;79.52
48630;BME280;34426;52.180;4.462;2023-08-17T07:56:06;102208.25;;;18.65;79.51
48630;BME280;34426;52.180;4.462;2023-08-17T07:58:32;102202.56;;;18.75;80.06
48630;BME280;34426;52.180;4.462;2023-08-17T08:00:57;102205.59;;;18.93;78.90
48630;BME280;34426;52.180;4.462;2023-08-17T08:03:23;102208.75;;;18.87;78.33
48630;BME280;34426;52.180;4.462;2023-08-17T08:05:48;102213.59;;;18.81;78.58
48630;BME280;34426;52.180;4.462;2023-08-17T08:08:14;102211.66;;;18.67;79.62
48630;BME280;34426;52.180;4.462;2023-08-17T08:10:41;102217.03;;;18.73;79.96
48630;BME280;34426;52.180;4.462;2023-08-17T08:13:06;102204.78;;;18.83;78.97
48630;BME280;34426;52.180;4.462;2023-08-17T08:15:33;102201.44;;;18.71;78.85
48630;BME280;34426;52.180;4.462;2023-08-17T08:17:58;102200.28;;;18.77;78.82
48630;BME280;34426;52.180;4.462;2023-08-17T08:20:24;102205.91;;;18.87;80.06
48630;BME280;34426;52.180;4.462;2023-08-17T08:22:49;102201.31;;;19.01;79.09
48630;BME280;34426;52.180;4.462;2023-08-17T08:25:15;102197.91;;;18.99;77.96
48630;BME280;34426;52.180;4.462;2023-08-17T08:27:41;102195.56;;;19.11;77.39
48630;BME280;34426;52.180;4.462;2023-08-17T08:30:07;102197.25;;;19.12;76.75
48630;BME280;34426;52.180;4.462;2023-08-17T08:32:33;102200.31;;;19.21;77.01
48630;BME280;34426;52.180;4.462;2023-08-17T08:34:58;102203.44;;;19.19;76.09
48630;BME280;34426;52.180;4.462;2023-08-17T08:37:24;102197.19;;;19.22;75.97
48630;BME280;34426;52.180;4.462;2023-08-17T08:39:50;102189.81;;;19.21;76.65
48630;BME280;34426;52.180;4.462;2023-08-17T08:42:16;102197.75;;;19.24;77.10
48630;BME280;34426;52.180;4.462;2023-08-17T08:44:43;102184.59;;;19.39;76.53
48630;BME280;34426;52.180;4.462;2023-08-17T08:47:09;102185.13;;;19.46;75.35
48630;BME280;34426;52.180;4.462;2023-08-17T08:49:39;102188.44;;;19.58;74.38
48630;BME280;34426;52.180;4.462;2023-08-17T08:52:07;102187.88;;;19.56;75.47
48630;BME280;34426;52.180;4.462;2023-08-17T08:54:35;102184.97;;;19.66;75.44
48630;BME280;34426;52.180;4.462;2023-08-17T08:57:03;102177.69;;;19.89;75.18
48630;BME280;34426;52.180;4.462;2023-08-17T08:59:30;102178.94;;;20.02;74.58
48630;BME280;34426;52.180;4.462;2023-08-17T09:01:58;102178.41;;;20.00;73.84
48630;BME280;34426;52.180;4.462;2023-08-17T09:04:23;102175.56;;;20.00;72.63
48630;BME280;34426;52.180;4.462;2023-08-17T09:06:50;102176.75;;;19.93;72.75
48630;BME280;34426;52.180;4.462;2023-08-17T09:09:16;102170.56;;;19.91;73.51
48630;BME280;34426;52.180;4.462;2023-08-17T09:11:43;102168.28;;;20.17;73.04
48630;BME280;34426;52.180;4.462;2023-08-17T09:14:08;102169.03;;;20.28;72.65
48630;BME280;34426;52.180;4.462;2023-08-17T09:16:34;102167.94;;;20.24;71.51
48630;BME280;34426;52.180;4.462;2023-08-17T09:19:01;102172.75;;;20.23;72.22
48630;BME280;34426;52.180;4.462;2023-08-17T09:21:31;102171.38;;;20.21;72.33
48630;BME280;34426;52.180;4.462;2023-08-17T09:23:56;102173.84;;;20.27;72.07
48630;BME280;34426;52.180;4.462;2023-08-17T09:26:22;102170.53;;;20.20;73.31
48630;BME280;34426;52.180;4.462;2023-08-17T09:28:48;102159.81;;;20.36;72.74
48630;BME280;34426;52.180;4.462;2023-08-17T09:31:13;102170.25;;;20.70;72.11
48630;BME280;34426;52.180;4.462;2023-08-17T09:33:39;102159.56;;;20.80;70.83
48630;BME280;34426;52.180;4.462;2023-08-17T09:36:06;102155.72;;;20.90;70.78
48630;BME280;34426;52.180;4.462;2023-08-17T09:38:31;102155.97;;;20.75;71.05
48630;BME280;34426;52.180;4.462;2023-08-17T09:40:57;102148.13;;;21.04;69.94
48630;BME280;34426;52.180;4.462;2023-08-17T09:43:24;102149.59;;;21.02;68.85
48630;BME280;34426;52.180;4.462;2023-08-17T09:45:50;102140.75;;;21.03;69.41
48630;BME280;34426;52.180;4.462;2023-08-17T09:48:16;102137.81;;;21.08;70.50
48630;BME280;34426;52.180;4.462;2023-08-17T09:50:42;102131.13;;;21.18;70.13
48630;BME280;34426;52.180;4.462;2023-08-17T09:53:12;102139.97;;;21.16;69.75
48630;BME280;34426;52.180;4.462;2023-08-17T09:55:39;102128.59;;;21.16;69.11
48630;BME280;34426;52.180;4.462;2023-08-17T09:58:06;102131.41;;;21.21;69.74
48630;BME280;34426;52.180;4.462;2023-08-17T10:00:32;102128.38;;;21.13;68.97
48630;BME280;34426;52.180;4.462;2023-08-17T10:03:01;102138.28;;;21.15;69.50
48630;BME280;34426;52.180;4.462;2023-08-17T10:05:28;102143.13;;;20.96;68.29
48630;BME280;34426;52.180;4.462;2023-08-17T10:07:57;102149.69;;;21.15;70.08
48630;BME280;34426;52.180;4.462;2023-08-17T10:10:27;102137.44;;;21.34;67.92
48630;BME280;34426;52.180;4.462;2023-08-17T10:13:00;102140.34;;;21.80;67.82
48630;BME280;34426;52.180;4.462;2023-08-17T10:15:27;102132.75;;;22.08;66.08
48630;BME280;34426;52.180;4.462;2023-08-17T10:18:00;102132.31;;;22.28;66.06
48630;BME280;34426;52.180;4.462;2023-08-17T10:20:30;102135.91;;;22.20;65.65
48630;BME280;34426;52.180;4.462;2023-08-17T10:23:00;102120.88;;;22.55;64.50
48630;BME280;34426;52.180;4.462;2023-08-17T10:25:28;102119.88;;;22.51;63.97
48630;BME280;34426;52.180;4.462;2023-08-17T10:27:54;102127.75;;;22.54;64.30
48630;BME280;34426;52.180;4.462;2023-08-17T10:30:20;102119.09;;;22.73;63.94
48630;BME280;34426;52.180;4.462;2023-08-17T10:32:46;102113.50;;;22.82;64.12
48630;BME280;34426;52.180;4.462;2023-08-17T10:35:13;102116.91;;;23.06;63.11
48630;BME280;34426;52.180;4.462;2023-08-17T10:37:39;102117.66;;;22.98;62.05
48630;BME280;34426;52.180;4.462;2023-08-17T10:40:06;102120.78;;;22.88;62.53
48630;BME280;34426;52.180;4.462;2023-08-17T10:42:35;102122.94;;;22.41;63.13
48630;BME280;34426;52.180;4.462;2023-08-17T10:45:01;102120.91;;;22.28;64.67
48630;BME280;34426;52.180;4.462;2023-08-17T10:47:28;102121.56;;;22.52;64.22
48630;BME280;34426;52.180;4.462;2023-08-17T10:49:56;102129.34;;;22.74;63.64
48630;BME280;34426;52.180;4.462;2023-08-17T10:52:26;102126.16;;;22.76;61.98
48630;BME280;34426;52.180;4.462;2023-08-17T10:54:52;102121.09;;;22.86;63.31
48630;BME280;34426;52.180;4.462;2023-08-17T10:57:28;102125.22;;;23.16;63.00
48630;BME280;34426;52.180;4.462;2023-08-17T11:00:25;102117.63;;;22.89;62.39
48630;BME280;34426;52.180;4.462;2023-08-17T11:02:55;102121.44;;;23.07;61.62
48630;BME280;34426;52.180;4.462;2023-08-17T11:05:37;102130.81;;;23.44;61.65
48630;BME280;34426;52.180;4.462;2023-08-17T11:08:04;102121.38;;;23.35;61.28
48630;BME280;34426;52.180;4.462;2023-08-17T11:10:30;102114.31;;;23.54;60.53
48630;BME280;34426;52.180;4.462;2023-08-17T11:12:56;102105.09;;;23.58;60.70
48630;BME280;34426;52.180;4.462;2023-08-17T11:15:24;102098.81;;;24.09;60.21
48630;BME280;34426;52.180;4.462;2023-08-17T11:17:50;102106.09;;;24.15;60.84
48630;BME280;34426;52.180;4.462;2023-08-17T11:20:15;102106.91;;;23.84;61.16
48630;BME280;34426;52.180;4.462;2023-08-17T11:22:41;102100.28;;;23.98;59.87
48630;BME280;34426;52.180;4.462;2023-08-17T11:25:07;102100.47;;;24.01;59.98
48630;BME280;34426;52.180;4.462;2023-08-17T11:27:33;102096.66;;;24.54;58.98
48630;BME280;34426;52.180;4.462;2023-08-17T11:29:58;102094.41;;;24.42;58.39
48630;BME280;34426;52.180;4.462;2023-08-17T11:32:25;102100.94;;;23.95;58.28
48630;BME280;34426;52.180;4.462;2023-08-17T11:34:51;102100.34;;;24.15;58.52
48630;BME280;34426;52.180;4.462;2023-08-17T11:37:17;102098.94;;;24.35;57.97
48630;BME280;34426;52.180;4.462;2023-08-17T11:39:42;102106.63;;;23.95;59.73
48630;BME280;34426;52.180;4.462;2023-08-17T11:42:08;102104.88;;;23.76;60.61
48630;BME280;34426;52.180;4.462;2023-08-17T11:44:34;102104.59;;;23.42;60.64
48630;BME280;34426;52.180;4.462;2023-08-17T11:46:59;102109.94;;;24.10;61.53
48630;BME280;34426;52.180;4.462;2023-08-17T11:49:26;102096.81;;;24.58;59.60
48630;BME280;34426;52.180;4.462;2023-08-17T11:51:51;102100.88;;;24.74;59.09
48630;BME280;34426;52.180;4.462;2023-08-17T11:54:17;102093.63;;;24.59;59.18
48630;BME280;34426;52.180;4.462;2023-08-17T11:56:42;102095.81;;;24.53;57.14
48630;BME280;34426;52.180;4.462;2023-08-17T11:59:08;102100.72;;;24.70;57.96
48630;BME280;34426;52.180;4.462;2023-08-17T12:01:35;102087.78;;;24.90;55.84
48630;BME280;34426;52.180;4.462;2023-08-17T12:04:04;102085.47;;;25.01;57.28
48630;BME280;34426;52.180;4.462;2023-08-17T12:06:31;102092.34;;;25.26;55.52
48630;BME280;34426;52.180;4.462;2023-08-17T12:08:57;102091.00;;;25.23;55.39
48630;BME280;34426;52.180;4.462;2023-08-17T12:11:24;102086.78;;;25.20;57.04
48630;BME280;34426;52.180;4.462;2023-08-17T12:13:49;102081.09;;;25.03;57.00
48630;BME280;34426;52.180;4.462;2023-08-17T12:16:15;102094.31;;;24.73;57.35
48630;BME280;34426;52.180;4.462;2023-08-17T12:18:43;102083.38;;;24.67;56.84
48630;BME280;34426;52.180;4.462;2023-08-17T12:21:09;102094.34;;;24.82;57.55
48630;BME280;34426;52.180;4.462;2023-08-17T12:23:36;102088.41;;;24.70;56.67
48630;BME280;34426;52.180;4.462;2023-08-17T12:26:01;102083.03;;;24.60;57.03
48630;BME280;34426;52.180;4.462;2023-08-17T12:28:27;102084.31;;;24.36;57.41
48630;BME280;34426;52.180;4.462;2023-08-17T12:31:00;102079.47;;;24.45;58.51
48630;BME280;34426;52.180;4.462;2023-08-17T12:33:25;102075.84;;;25.40;56.57
48630;BME280;34426;52.180;4.462;2023-08-17T12:35:51;102075.44;;;25.84;54.62
48630;BME280;34426;52.180;4.462;2023-08-17T12:38:16;102060.78;;;25.77;54.10
48630;BME280;34426;52.180;4.462;2023-08-17T12:40:43;102070.53;;;26.23;55.98
48630;BME280;34426;52.180;4.462;2023-08-17T12:43:09;102069.06;;;26.76;53.51
48630;BME280;34426;52.180;4.462;2023-08-17T12:45:35;102079.28;;;26.65;53.56